Time;durP1;ratioP1;P1;durP2;ratioP2;P2;SDS_P1;SDS_P2;PMS_P1;PMS_P2;Temp;Humidity;BMP_temperature;BMP_pressure;BME280_temperature;BME280_humidity;BME280_pressure;Samples;Min_cycle;Max_cycle;Signal;HPM_P1;HPM_P2
2023/03/28 00:02:15;;;;;;;22.30;6.00;;;;;;;-0.76;100.00;102598.22;5052867;28;20041;-59
2023/03/28 00:04:41;;;;;;;19.98;6.10;;;;;;;-0.74;100.00;102591.69;5053796;28;20083;-59
2023/03/28 00:07:06;;;;;;;19.13;5.80;;;;;;;-0.74;100.00;102592.56;5053387;28;20029;-59
2023/03/28 00:09:32;;;;;;;19.73;5.18;;;;;;;-0.76;100.00;102589.00;5053220;28;20056;-59
2023/03/28 00:11:57;;;;;;;17.80;6.40;;;;;;;-0.77;100.00;102589.75;5053309;28;20033;-59
2023/03/28 00:14:23;;;;;;;15.50;5.47;;;;;;;-0.78;100.00;102595.53;5053250;28;20028;-59
2023/03/28 00:16:49;;;;;;;16.35;6.13;;;;;;;-0.76;100.00;102593.16;5053689;28;20056;-58
2023/03/28 00:19:17;;;;;;;20.98;6.18;;;;;;;-0.73;100.00;102594.38;5053211;28;20373;-59
2023/03/28 00:21:47;;;;;;;18.25;5.50;;;;;;;-0.75;100.00;102594.97;5052772;28;20468;-58
2023/03/28 00:24:15;;;;;;;17.67;6.30;;;;;;;-0.76;100.00;102593.16;5053419;28;20086;-58
2023/03/28 00:26:42;;;;;;;15.02;5.53;;;;;;;-0.77;100.00;102596.47;5053311;28;20422;-59
2023/03/28 00:29:11;;;;;;;16.63;5.70;;;;;;;-0.81;100.00;102585.09;5052362;28;20025;-59
2023/03/28 00:31:38;;;;;;;18.35;5.20;;;;;;;-0.85;100.00;102590.59;5053285;28;20437;-59
2023/03/28 00:34:04;;;;;;;16.30;6.00;;;;;;;-0.84;100.00;102592.38;5053026;28;20029;-59
2023/03/28 00:36:31;;;;;;;15.73;5.45;;;;;;;-0.82;100.00;102585.84;5052687;28;20108;-60
2023/03/28 00:39:05;;;;;;;17.20;5.93;;;;;;;-0.90;100.00;102586.69;5053272;28;20021;-60
2023/03/28 00:41:33;;;;;;;16.08;6.57;;;;;;;-0.96;100.00;102586.06;5053120;28;20267;-59
2023/03/28 00:44:00;;;;;;;;;;;;;;;-0.87;100.00;102587.88;5052899;28;20434;-60
2023/03/28 00:46:28;;;;;;;21.30;6.63;;;;;;;-1.02;100.00;102589.72;5053154;28;19919;-60
2023/03/28 00:49:00;;;;;;;18.63;5.78;;;;;;;-1.14;100.00;102596.03;5052566;28;20378;-60
2023/03/28 00:51:30;;;;;;;16.63;5.90;;;;;;;-1.14;100.00;102597.69;5052778;28;20029;-60
2023/03/28 00:53:58;;;;;;;14.13;5.75;;;;;;;-1.24;100.00;102593.25;5052805;28;20384;-59
2023/03/28 00:56:28;;;;;;;19.75;5.95;;;;;;;-1.19;100.00;102589.59;5052120;28;20082;-60
2023/03/28 00:58:55;;;;;;;22.90;6.35;;;;;;;-1.23;100.00;102592.53;5052747;28;20117;-59
2023/03/28 01:01:20;;;;;;;20.85;6.20;;;;;;;-1.22;100.00;102597.75;5052728;28;20040;-60
2023/03/28 01:03:55;;;;;;;12.93;6.05;;;;;;;-1.24;100.00;102601.78;5052222;28;20028;-60
2023/03/28 01:06:23;;;;;;;15.75;6.15;;;;;;;-1.34;100.00;102599.00;5053098;28;20021;-60
2023/03/28 01:08:49;;;;;;;18.00;6.82;;;;;;;-1.33;100.00;102596.63;5052885;28;20040;-60
2023/03/28 01:11:16;;;;;;;17.30;6.18;;;;;;;-1.38;100.00;102597.78;5051801;28;20028;-60
2023/03/28 01:13:48;;;;;;;16.08;6.65;;;;;;;-1.37;100.00;102598.66;5052752;28;20029;-60
2023/03/28 01:16:16;;;;;;;19.67;6.72;;;;;;;-1.39;100.00;102592.56;5052596;28;20029;-60
2023/03/28 01:18:45;;;;;;;18.30;6.57;;;;;;;-1.49;100.00;102589.03;5052066;28;20033;-60
2023/03/28 01:21:36;;;;;;;16.77;6.00;;;;;;;-1.66;100.00;102578.78;5052396;28;20060;-60
2023/03/28 01:24:42;;;;;;;18.48;6.57;;;;;;;-1.60;100.00;102586.09;5052184;28;20021;-59
2023/03/28 01:27:15;;;;;;;20.98;6.90;;;;;;;-1.61;100.00;102577.63;5052445;28;20096;-60
2023/03/28 01:29:43;;;;;;;20.05;7.85;;;;;;;-1.58;100.00;102584.66;5052729;28;20079;-60
2023/03/28 01:32:42;;;;;;;24.90;7.85;;;;;;;-1.58;100.00;102577.94;5051383;28;20376;-60
2023/03/28 01:35:27;;;;;;;18.42;7.18;;;;;;;-1.50;100.00;102576.22;5052282;28;20511;-60
2023/03/28 01:38:24;;;;;;;20.25;7.28;;;;;;;-1.47;100.00;102581.63;5052424;28;20108;-59
2023/03/28 01:41:11;;;;;;;19.85;7.15;;;;;;;-1.43;100.00;102583.75;5032470;28;20125;-59
2023/03/28 01:44:00;;;;;;;21.92;7.65;;;;;;;-1.40;100.00;102578.13;5052629;28;20119;-60
2023/03/28 01:46:37;;;;;;;20.48;7.57;;;;;;;-1.39;100.00;102573.22;5052351;28;20025;-60
2023/03/28 01:49:14;;;;;;;20.25;7.53;;;;;;;-1.37;100.00;102579.34;5052248;28;20021;-59
2023/03/28 01:51:52;;;;;;;17.73;7.72;;;;;;;-1.35;100.00;102572.78;5052393;28;20064;-59
2023/03/28 01:54:17;;;;;;;15.95;7.07;;;;;;;-1.40;100.00;102561.28;5051670;28;20171;-60
2023/03/28 01:56:55;;;;;;;20.83;7.93;;;;;;;-1.44;100.00;102565.88;5052452;28;20104;-60
2023/03/28 01:59:36;;;;;;;21.30;8.68;;;;;;;-1.40;100.00;102563.81;5052206;28;20025;-59
2023/03/28 02:02:05;;;;;;;19.48;7.43;;;;;;;-1.45;100.00;102570.03;5051255;28;20060;-60
2023/03/28 02:04:32;;;;;;;18.65;7.85;;;;;;;-1.38;100.00;102566.50;5052417;28;20029;-60
2023/03/28 02:06:58;;;;;;;22.75;7.75;;;;;;;-1.45;100.00;102567.50;5052703;28;20027;-60
2023/03/28 02:09:25;;;;;;;16.90;7.97;;;;;;;-1.50;100.00;102572.09;5056080;28;20025;-60
2023/03/28 02:11:54;;;;;;;;;;;;;;;-1.44;100.00;102569.31;5056388;28;20469;-59
2023/03/28 02:14:25;;;;;;;23.73;8.40;;;;;;;-1.53;100.00;102569.22;5055136;28;19962;-60
2023/03/28 02:16:53;;;;;;;20.42;8.40;;;;;;;-1.51;100.00;102571.91;5056212;28;20079;-59
2023/03/28 02:19:21;;;;;;;20.63;7.95;;;;;;;-1.53;100.00;102568.34;5055841;28;20468;-59
2023/03/28 02:21:50;;;;;;;;;;;;;;;-1.46;100.00;102578.34;5055636;28;20103;-59
2023/03/28 02:24:15;;;;;;;22.75;9.02;;;;;;;-1.56;100.00;102568.00;5055684;28;20427;-60
2023/03/28 02:26:42;;;;;;;25.30;9.32;;;;;;;-1.54;100.00;102564.00;5055504;28;20094;-60
2023/03/28 02:29:09;;;;;;;24.20;8.65;;;;;;;-1.65;100.00;102565.41;5055173;28;20048;-60
2023/03/28 02:31:35;;;;;;;23.55;8.63;;;;;;;-1.60;100.00;102563.34;5055839;28;20383;-59
2023/03/28 02:34:01;;;;;;;23.35;9.07;;;;;;;-1.64;100.00;102561.22;5055196;28;20033;-60
2023/03/28 02:36:47;;;;;;;19.10;8.60;;;;;;;-1.68;100.00;102558.41;5055154;28;20435;-59
2023/03/28 02:39:31;;;;;;;18.75;8.90;;;;;;;-1.67;100.00;102562.69;5055254;28;20021;-60
2023/03/28 02:42:16;;;;;;;23.58;9.10;;;;;;;-1.61;100.00;102565.00;5054854;28;20037;-60
2023/03/28 02:44:53;;;;;;;23.60;8.35;;;;;;;-1.62;100.00;102560.66;5055663;28;20102;-59
2023/03/28 02:47:30;;;;;;;23.73;8.68;;;;;;;-1.60;100.00;102563.34;5055319;28;20033;-60
2023/03/28 02:50:12;;;;;;;17.50;8.50;;;;;;;-1.66;100.00;102561.97;5054336;28;20483;-60
2023/03/28 02:52:52;;;;;;;17.88;8.55;;;;;;;-1.66;100.00;102564.50;5055281;28;20534;-60
2023/03/28 02:55:27;;;;;;;17.33;8.07;;;;;;;-1.66;100.00;102558.56;5054784;28;20033;-59
2023/03/28 02:58:07;;;;;;;16.65;8.40;;;;;;;-1.68;100.00;102554.94;5054632;28;20120;-60
2023/03/28 03:00:32;;;;;;;21.65;8.18;;;;;;;-1.70;100.00;102552.25;5055366;28;20064;-60
2023/03/28 03:02:58;;;;;;;23.85;8.88;;;;;;;-1.75;100.00;102553.41;5054749;28;20052;-60
2023/03/28 03:05:24;;;;;;;20.48;8.35;;;;;;;-1.76;100.00;102559.19;5054674;28;20056;-59
2023/03/28 03:07:50;;;;;;;23.92;8.88;;;;;;;-1.82;100.00;102546.81;5055025;28;20114;-60
2023/03/28 03:10:16;;;;;;;17.35;8.02;;;;;;;-1.90;100.00;102547.63;5053972;28;20075;-59
2023/03/28 03:12:42;;;;;;;18.65;8.60;;;;;;;-1.97;100.00;102546.81;5054852;28;20036;-60
2023/03/28 03:15:09;;;;;;;19.98;8.77;;;;;;;-1.92;100.00;102544.03;5054585;28;20032;-60
2023/03/28 03:17:35;;;;;;;23.15;8.77;;;;;;;-1.93;100.00;102549.81;5054237;28;20040;-60
2023/03/28 03:20:02;;;;;;;14.13;4.00;;;;;;;-1.89;100.00;102554.44;5053913;28;20025;-59
2023/03/28 03:22:27;;;;;;;23.70;9.03;;;;;;;-1.92;100.00;102551.59;5054750;28;20025;-60
2023/03/28 03:24:53;;;;;;;18.67;8.93;;;;;;;-1.91;100.00;102549.97;5053879;28;20361;-60
2023/03/28 03:27:19;;;;;;;8.98;4.28;;;;;;;-1.87;100.00;102552.13;5054798;28;20029;-59
2023/03/28 03:29:47;;;;;;;20.75;8.65;;;;;;;-1.91;100.00;102555.00;5054356;28;20504;-60
2023/03/28 03:32:12;;;;;;;22.42;8.60;;;;;;;-1.89;100.00;102561.16;5053904;28;20049;-60
2023/03/28 03:34:40;;;;;;;19.10;8.77;;;;;;;-1.96;100.00;102561.22;5054561;28;20048;-59
2023/03/28 03:37:07;;;;;;;21.08;8.68;;;;;;;-2.06;100.00;102560.22;5053938;28;20091;-60
2023/03/28 03:39:34;;;;;;;21.65;8.63;;;;;;;-1.97;100.00;102554.38;5053979;28;20025;-60
2023/03/28 03:42:00;;;;;;;18.27;7.47;;;;;;;-2.18;100.00;102566.50;5054062;28;20547;-60
2023/03/28 03:44:25;;;;;;;23.83;9.57;;;;;;;-2.09;100.00;102556.47;5054299;28;20104;-59
2023/03/28 03:46:50;;;;;;;23.25;10.02;;;;;;;-2.08;100.00;102560.78;5053718;28;20074;-60
2023/03/28 03:49:16;;;;;;;22.30;10.13;;;;;;;-2.09;100.00;102558.97;5053941;28;20028;-60
2023/03/28 03:51:41;;;;;;;19.77;9.98;;;;;;;-2.03;100.00;102555.53;5053968;28;20065;-59
2023/03/28 03:54:06;;;;;;;24.35;10.82;;;;;;;-2.04;100.00;102558.78;5053395;28;20021;-60
2023/03/28 03:56:32;;;;;;;21.85;10.90;;;;;;;-2.00;100.00;102560.00;5054233;28;20025;-60
2023/03/28 03:58:57;;;;;;;30.20;11.73;;;;;;;-1.96;100.00;102551.09;5053825;28;20111;-59
2023/03/28 04:01:24;;;;;;;23.27;10.57;;;;;;;-1.99;100.00;102552.59;5053444;28;20063;-60
2023/03/28 04:03:50;;;;;;;28.27;12.10;;;;;;;-1.97;100.00;102559.44;5054065;28;20104;-60
2023/03/28 04:06:16;;;;;;;21.17;11.07;;;;;;;-2.00;100.00;102550.78;5053491;28;20099;-60
2023/03/28 04:08:41;;;;;;;25.17;12.07;;;;;;;-2.00;100.00;102548.25;5053154;28;20037;-59
2023/03/28 04:11:08;;;;;;;25.83;13.77;;;;;;;-1.96;100.00;102546.03;5053719;28;20086;-59
2023/03/28 04:13:33;;;;;;;22.05;13.63;;;;;;;-2.00;100.00;102549.91;5053327;28;20029;-60
2023/03/28 04:15:59;;;;;;;22.63;13.45;;;;;;;-2.01;100.00;102556.56;5053682;28;20116;-60
2023/03/28 04:18:24;;;;;;;29.17;14.27;;;;;;;-2.00;100.00;102558.34;5053866;28;20021;-62
2023/03/28 04:20:54;;;;;;;28.63;14.35;;;;;;;-1.94;100.00;102558.09;5052851;28;20120;-59
2023/03/28 04:23:24;;;;;;;26.70;14.60;;;;;;;-1.94;100.00;102552.16;5053408;28;20024;-59
2023/03/28 04:25:54;;;;;;;27.73;15.88;;;;;;;-1.94;100.00;102549.66;5053368;28;20025;-60
2023/03/28 04:28:20;;;;;;;26.58;15.65;;;;;;;-1.97;100.00;102544.28;5052916;28;20039;-60
2023/03/28 04:30:45;;;;;;;25.73;15.73;;;;;;;-1.93;100.00;102542.22;5052618;28;20021;-60
2023/03/28 04:33:10;;;;;;;27.40;16.67;;;;;;;-1.92;100.00;102543.13;5052783;28;20423;-60
2023/03/28 04:35:36;;;;;;;30.92;17.00;;;;;;;-1.90;100.00;102541.66;5052805;28;20112;-60
2023/03/28 04:38:01;;;;;;;26.92;16.63;;;;;;;-1.85;100.00;102545.56;5052886;28;20028;-59
2023/03/28 04:40:28;;;;;;;28.75;16.88;;;;;;;-1.87;100.00;102547.06;5052995;28;20060;-59
2023/03/28 04:42:53;;;;;;;27.00;18.15;;;;;;;-1.88;100.00;102550.31;5052804;28;20092;-60
2023/03/28 04:45:19;;;;;;;31.10;18.35;;;;;;;-1.84;100.00;102542.31;5053265;28;20097;-59
2023/03/28 04:47:44;;;;;;;33.45;17.27;;;;;;;-1.88;100.00;102541.09;5052808;28;20032;-59
2023/03/28 04:50:11;;;;;;;30.42;17.33;;;;;;;-1.90;100.00;102539.13;5052276;28;20032;-59
2023/03/28 04:52:37;;;;;;;33.38;17.40;;;;;;;-1.90;100.00;102542.56;5053042;28;20028;-60
2023/03/28 04:55:03;;;;;;;29.83;18.27;;;;;;;-1.94;100.00;102550.53;5052720;28;20018;-60
2023/03/28 04:57:28;;;;;;;30.00;18.27;;;;;;;-1.90;100.00;102544.19;5052577;28;20033;-59
2023/03/28 04:59:54;;;;;;;31.83;17.40;;;;;;;-1.90;100.00;102536.59;5052739;28;20048;-59
2023/03/28 05:02:20;;;;;;;28.30;17.75;;;;;;;-1.95;100.00;102542.78;5052434;28;20414;-59
2023/03/28 05:04:46;;;;;;;30.58;18.52;;;;;;;-1.94;100.00;102549.66;5052367;28;20488;-59
2023/03/28 05:07:11;;;;;;;28.80;17.90;;;;;;;-1.98;100.00;102558.53;5052418;28;20538;-59
2023/03/28 05:09:36;;;;;;;29.60;17.65;;;;;;;-1.99;100.00;102557.63;5052790;28;20508;-59
2023/03/28 05:12:02;;;;;;;29.70;18.45;;;;;;;-2.00;100.00;102565.06;5052117;28;20036;-60
2023/03/28 05:14:27;;;;;;;39.30;18.70;;;;;;;-2.04;100.00;102566.34;5052962;28;20035;-60
2023/03/28 05:16:52;;;;;;;29.83;17.85;;;;;;;-2.05;100.00;102571.25;5052118;28;20013;-59
2023/03/28 05:19:19;;;;;;;16.85;8.02;;;;;;;-2.02;100.00;102572.44;5052440;28;20385;-59
2023/03/28 05:21:45;;;;;;;34.33;18.58;;;;;;;-2.10;100.00;102572.38;5052636;28;20021;-59
2023/03/28 05:24:10;;;;;;;35.35;19.88;;;;;;;-2.10;100.00;102568.22;5051789;28;20374;-59
2023/03/28 05:26:35;;;;;;;30.17;19.52;;;;;;;-2.08;100.00;102565.84;5052815;28;20024;-59
2023/03/28 05:29:01;;;;;;;31.67;20.05;;;;;;;-2.08;100.00;102561.69;5052276;28;20028;-60
2023/03/28 05:31:29;;;;;;;29.85;20.08;;;;;;;-2.08;100.00;102565.84;5052159;28;20040;-60
2023/03/28 05:33:54;;;;;;;36.95;22.33;;;;;;;-2.10;100.00;102572.38;5052460;28;20102;-59
2023/03/28 05:36:20;;;;;;;38.95;21.92;;;;;;;-2.13;100.00;102577.06;5052401;28;20075;-60
2023/03/28 05:38:45;;;;;;;41.67;22.17;;;;;;;-2.15;100.00;102577.78;5052151;28;20108;-60
2023/03/28 05:41:10;;;;;;;33.45;21.58;;;;;;;-2.13;100.00;102572.94;5052415;28;20025;-60
2023/03/28 05:43:36;;;;;;;21.38;10.90;;;;;;;-2.09;100.00;102579.19;5056441;28;20052;-60
2023/03/28 05:46:01;;;;;;;35.83;22.60;;;;;;;-2.15;100.00;102580.31;5055751;28;20046;-60
2023/03/28 05:48:26;;;;;;;38.75;23.35;;;;;;;-2.14;100.00;102581.25;5056376;28;20387;-59
2023/03/28 05:50:51;;;;;;;37.10;25.15;;;;;;;-2.16;100.00;102578.56;5056158;28;20498;-59
2023/03/28 05:53:17;;;;;;;25.05;10.07;;;;;;;-2.08;100.00;102581.00;5055714;28;20017;-60
2023/03/28 05:55:42;;;;;;;45.20;27.45;;;;;;;-2.08;100.00;102586.97;5056584;28;20025;-60
2023/03/28 05:58:08;;;;;;;48.75;27.05;;;;;;;-2.06;100.00;102585.47;5055852;28;20036;-59
2023/03/28 06:00:33;;;;;;;43.28;27.63;;;;;;;-2.04;100.00;102580.59;5055698;28;20045;-59
2023/03/28 06:02:59;;;;;;;41.13;28.95;;;;;;;-2.00;100.00;102578.56;5055910;28;20031;-60
2023/03/28 06:05:25;;;;;;;46.42;30.38;;;;;;;-1.87;100.00;102577.38;5055773;28;20376;-59
2023/03/28 06:07:51;;;;;;;46.35;31.00;;;;;;;-1.79;100.00;102574.03;5055749;28;20056;-59
2023/03/28 06:10:16;;;;;;;43.47;31.35;;;;;;;-1.72;100.00;102575.59;5055834;28;20043;-60
2023/03/28 06:12:42;;;;;;;49.03;31.67;;;;;;;-1.67;100.00;102565.22;5055962;28;20104;-60
2023/03/28 06:15:08;;;;;;;42.65;30.25;;;;;;;-1.58;100.00;102569.47;5055191;28;20079;-60
2023/03/28 06:17:34;;;;;;;45.75;30.25;;;;;;;-1.56;100.00;102565.47;5055939;28;20021;-60
2023/03/28 06:19:59;;;;;;;47.65;29.48;;;;;;;-1.49;100.00;102568.81;5054781;28;20087;-60
2023/03/28 06:22:25;;;;;;;43.17;29.90;;;;;;;-1.41;100.00;102561.13;5055746;28;20024;-59
2023/03/28 06:24:51;;;;;;;41.78;29.65;;;;;;;-1.36;100.00;102565.06;5055964;28;20052;-60
2023/03/28 06:27:16;;;;;;;50.00;29.73;;;;;;;-1.25;100.00;102568.69;5054696;28;20079;-59
2023/03/28 06:29:41;;;;;;;42.97;29.20;;;;;;;-1.15;100.00;102568.94;5055652;28;20075;-60
2023/03/28 06:32:07;;;;;;;42.40;28.85;;;;;;;-1.09;100.00;102576.28;5055279;28;20116;-59
2023/03/28 06:34:32;;;;;;;44.38;28.45;;;;;;;-1.02;100.00;102578.69;5055084;28;20040;-60
2023/03/28 06:36:59;;;;;;;47.83;29.85;;;;;;;-0.94;100.00;102576.97;5055407;28;20025;-60
2023/03/28 06:39:24;;;;;;;51.45;27.60;;;;;;;-0.87;100.00;102579.41;5055298;28;20780;-60
2023/03/28 06:41:50;;;;;;;44.22;28.42;;;;;;;-0.82;100.00;102583.31;5055031;28;20548;-60
2023/03/28 06:44:15;;;;;;;42.58;27.40;;;;;;;-0.75;100.00;102582.31;5055161;28;20025;-59
2023/03/28 06:46:40;;;;;;;42.65;27.92;;;;;;;-0.74;100.00;102582.44;5055663;28;20025;-59
2023/03/28 06:49:06;;;;;;;46.45;26.17;;;;;;;-0.64;100.00;102581.78;5054374;28;20036;-59
2023/03/28 06:51:32;;;;;;;39.25;25.58;;;;;;;-0.64;100.00;102580.91;5055497;28;20540;-59
2023/03/28 06:53:57;;;;;;;45.30;25.95;;;;;;;-0.62;100.00;102584.47;5053891;28;20021;-60
2023/03/28 06:56:22;;;;;;;41.58;25.75;;;;;;;-0.58;100.00;102584.03;5054609;28;20033;-60
2023/03/28 06:58:48;;;;;;;39.53;24.42;;;;;;;-0.54;100.00;102581.97;5055339;28;20108;-60
2023/03/28 07:01:13;;;;;;;33.95;23.30;;;;;;;-0.51;100.00;102587.34;5054387;28;20236;-60
2023/03/28 07:03:38;;;;;;;42.38;24.42;;;;;;;-0.38;100.00;102586.97;5054339;28;20086;-60
2023/03/28 07:06:05;;;;;;;36.45;23.15;;;;;;;-0.31;100.00;102590.13;5054642;28;20013;-60
2023/03/28 07:08:31;;;;;;;40.90;24.27;;;;;;;-0.20;100.00;102589.59;5054828;28;20082;-60
2023/03/28 07:10:56;;;;;;;37.15;22.70;;;;;;;-0.08;100.00;102589.91;5054229;28;20100;-60
2023/03/28 07:13:22;;;;;;;36.42;21.92;;;;;;;0.05;100.00;102592.03;5055095;28;20056;-60
2023/03/28 07:15:47;;;;;;;41.55;21.00;;;;;;;0.21;100.00;102592.84;5054657;28;20536;-59
2023/03/28 07:18:12;;;;;;;41.35;21.95;;;;;;;0.33;100.00;102596.56;5053943;28;20036;-60
2023/03/28 07:20:40;;;;;;;34.95;18.65;;;;;;;0.48;100.00;102592.13;5054969;28;20040;-59
2023/03/28 07:23:06;;;;;;;31.88;19.10;;;;;;;0.63;100.00;102597.84;5054384;28;20025;-59
2023/03/28 07:25:32;;;;;;;34.72;18.77;;;;;;;0.72;100.00;102597.81;5054247;28;20021;-59
2023/03/28 07:27:57;;;;;;;31.67;17.98;;;;;;;0.88;100.00;102605.31;5054330;28;20461;-59
2023/03/28 07:30:24;;;;;;;29.05;17.95;;;;;;;0.97;100.00;102606.19;5053957;28;20033;-59
2023/03/28 07:32:49;;;;;;;31.02;17.08;;;;;;;1.13;100.00;102603.47;5054365;28;20021;-59
2023/03/28 07:35:15;;;;;;;26.77;16.17;;;;;;;1.27;100.00;102607.34;5053790;28;20096;-59
2023/03/28 07:37:40;;;;;;;29.33;16.45;;;;;;;1.41;100.00;102610.31;5054059;28;20032;-59
2023/03/28 07:40:08;;;;;;;26.38;14.70;;;;;;;1.51;100.00;102607.91;5054196;28;20029;-59
2023/03/28 07:42:33;;;;;;;;;;;;;;;1.62;100.00;102606.34;5054713;28;20312;-58
2023/03/28 07:44:58;;;;;;;29.20;14.03;;;;;;;1.89;100.00;102608.03;5053585;28;20391;-59
2023/03/28 07:47:23;;;;;;;25.05;13.27;;;;;;;2.14;100.00;102606.13;5054072;28;20334;-58
2023/03/28 07:49:50;;;;;;;23.15;12.45;;;;;;;2.31;100.00;102609.31;5054181;28;20029;-59
2023/03/28 07:52:15;;;;;;;24.70;11.93;;;;;;;2.52;100.00;102614.56;5053469;28;20029;-58
2023/03/28 07:54:40;;;;;;;24.13;12.65;;;;;;;2.66;100.00;102610.72;5054272;28;20029;-58
2023/03/28 07:57:06;;;;;;;26.17;12.27;;;;;;;2.90;98.34;102607.81;5053424;28;20060;-58
2023/03/28 07:59:31;;;;;;;22.58;10.43;;;;;;;3.01;95.40;102607.88;5053343;28;20036;-58
2023/03/28 08:01:57;;;;;;;24.20;10.15;;;;;;;3.10;92.77;102606.19;5053465;28;20048;-58
2023/03/28 08:04:22;;;;;;;20.27;10.52;;;;;;;3.30;93.77;102605.34;5053737;28;20033;-58
2023/03/28 08:06:48;;;;;;;21.65;9.73;;;;;;;3.34;91.69;102607.41;5053479;28;20032;-58
2023/03/28 08:09:15;;;;;;;19.17;9.70;;;;;;;3.52;90.56;102607.22;5053458;28;20041;-59
2023/03/28 08:11:43;;;;;;;20.38;9.25;;;;;;;3.76;90.68;102609.34;5053554;28;20127;-58
2023/03/28 08:14:15;;;;;;;26.23;10.50;;;;;;;3.93;90.78;102610.75;5052932;28;20423;-59
2023/03/28 08:16:40;;;;;;;23.95;9.23;;;;;;;4.05;89.81;102604.94;5053623;28;20055;-58
2023/03/28 08:19:06;;;;;;;22.60;8.93;;;;;;;4.00;85.49;102601.09;5053311;28;20424;-58
2023/03/28 08:21:31;;;;;;;23.42;8.35;;;;;;;4.17;85.79;102605.06;5053133;28;20503;-57
2023/03/28 08:23:57;;;;;;;23.52;8.95;;;;;;;4.30;87.06;102607.88;5053308;28;20021;-57
2023/03/28 08:26:23;;;;;;;25.52;9.77;;;;;;;4.28;86.21;102607.72;5053467;28;20031;-58
2023/03/28 08:28:50;;;;;;;22.05;9.60;;;;;;;4.29;84.99;102606.97;5052939;28;20028;-59
2023/03/28 08:31:16;;;;;;;23.42;9.60;;;;;;;4.37;85.24;102604.19;5052940;28;20104;-59
2023/03/28 08:33:50;;;;;;;21.80;9.55;;;;;;;4.50;83.94;102612.09;5052820;28;20025;-58
2023/03/28 08:36:16;;;;;;;22.63;8.50;;;;;;;4.60;83.95;102598.41;5053243;28;20079;-59
2023/03/28 08:38:41;;;;;;;20.25;7.65;;;;;;;4.61;79.97;102601.09;5052989;28;20872;-59
2023/03/28 08:41:22;;;;;;;19.08;7.47;;;;;;;4.53;79.38;102598.66;5052532;28;20100;-59
2023/03/28 08:43:53;;;;;;;19.30;6.10;;;;;;;4.49;78.33;102600.06;5053207;28;20031;-59
2023/03/28 08:46:22;;;;;;;20.77;7.10;;;;;;;4.61;80.21;102601.09;5052847;28;20033;-59
2023/03/28 08:48:50;;;;;;;16.88;6.72;;;;;;;4.68;79.24;102596.50;5052658;28;20024;-59
2023/03/28 08:51:45;;;;;;;17.35;6.07;;;;;;;4.91;78.75;102596.69;5052848;28;20061;-58
2023/03/28 08:54:18;;;;;;;20.55;6.40;;;;;;;5.02;77.17;102589.00;5052254;28;20043;-58
2023/03/28 08:56:50;;;;;;;17.20;5.65;;;;;;;5.05;76.55;102595.25;5052746;28;20028;-58
2023/03/28 08:59:20;;;;;;;17.80;6.40;;;;;;;5.28;76.29;102588.53;5052680;28;20358;-59
2023/03/28 09:01:46;;;;;;;17.58;5.47;;;;;;;5.24;74.33;102581.38;5051840;28;20402;-59
2023/03/28 09:04:33;;;;;;;12.00;4.32;;;;;;;5.33;71.53;102591.44;5052616;28;20025;-58
2023/03/28 09:07:15;;;;;;;17.05;5.18;;;;;;;5.24;70.76;102582.28;5052340;28;20082;-59
2023/03/28 09:10:06;;;;;;;25.63;5.63;;;;;;;5.28;72.38;102579.19;5052298;28;20495;-59
2023/03/28 09:12:57;;;;;;;19.20;5.30;;;;;;;5.26;72.50;102583.28;5052686;28;20379;-57
2023/03/28 09:15:54;;;;;;;16.42;4.55;;;;;;;5.40;71.81;102575.81;5052785;28;20061;-57
2023/03/28 09:18:35;;;;;;;;;;;;;;;5.53;73.12;102580.22;5034108;28;20068;-58
2023/03/28 09:21:16;;;;;;;14.40;3.75;;;;;;;5.50;70.55;102583.44;5052339;28;19927;-58
2023/03/28 09:24:12;;;;;;;12.95;4.18;;;;;;;5.52;67.81;102574.19;5052247;28;20032;-58
2023/03/28 09:26:43;;;;;;;12.30;3.25;;;;;;;5.54;65.40;102585.47;5052749;28;20029;-58
2023/03/28 09:29:13;;;;;;;12.77;4.03;;;;;;;5.55;65.99;102578.66;5052012;28;20025;-58
2023/03/28 09:31:43;;;;;;;13.73;3.95;;;;;;;5.54;67.27;102577.78;5052082;28;20040;-58
2023/03/28 09:34:21;;;;;;;17.58;4.53;;;;;;;5.65;67.87;102570.94;5052280;28;20423;-58
2023/03/28 09:36:50;;;;;;;13.48;3.72;;;;;;;5.70;66.43;102563.63;5052286;28;20472;-58
2023/03/28 09:39:38;;;;;;;15.98;3.53;;;;;;;5.64;65.97;102565.72;5051862;28;20028;-59
2023/03/28 09:42:11;;;;;;;20.23;5.13;;;;;;;5.73;66.15;102563.84;5052107;28;20025;-58
2023/03/28 09:44:42;;;;;;;16.73;4.53;;;;;;;5.67;66.30;102564.28;5051916;28;20086;-58
2023/03/28 09:47:11;;;;;;;14.63;4.45;;;;;;;5.63;66.39;102561.34;5052283;28;20033;-58
2023/03/28 09:49:37;;;;;;;14.82;4.50;;;;;;;5.57;67.71;102564.34;5052310;28;20112;-58
2023/03/28 09:52:14;;;;;;;12.90;3.90;;;;;;;5.63;67.57;102552.03;5051517;28;20168;-58
2023/03/28 09:54:40;;;;;;;14.18;3.92;;;;;;;5.76;66.77;102551.31;5052557;28;20525;-58
2023/03/28 09:57:05;;;;;;;13.77;3.65;;;;;;;5.91;67.08;102549.94;5052020;28;20031;-59
2023/03/28 09:59:33;;;;;;;14.15;3.90;;;;;;;6.01;66.00;102542.97;5051969;28;20021;-58
2023/03/28 10:02:02;;;;;;;10.55;3.17;;;;;;;5.84;61.12;102539.09;5051765;28;20045;-58
2023/03/28 10:04:28;;;;;;;16.02;3.65;;;;;;;5.80;62.27;102535.41;5052135;28;20033;-58
2023/03/28 10:07:09;;;;;;;9.88;3.45;;;;;;;5.75;62.21;102535.06;5051692;28;20094;-58
2023/03/28 10:09:52;;;;;;;10.48;3.88;;;;;;;6.01;64.68;102525.94;5052012;28;20503;-58
2023/03/28 10:12:24;;;;;;;14.68;3.83;;;;;;;6.19;62.42;102526.41;5051294;28;20500;-58
2023/03/28 10:14:50;;;;;;;12.32;3.65;;;;;;;6.08;58.87;102517.03;5052376;28;20039;-58
2023/03/28 10:17:36;;;;;;;11.88;3.47;;;;;;;6.20;61.87;102510.28;5051618;28;20098;-58
2023/03/28 10:20:16;;;;;;;14.98;4.35;;;;;;;6.08;61.41;102506.81;5051525;28;20036;-58
2023/03/28 10:22:44;;;;;;;15.05;3.80;;;;;;;5.98;62.09;102502.69;5052227;28;20033;-58
2023/03/28 10:25:19;;;;;;;;;;;;;;;6.19;63.57;102498.25;5052057;28;20029;-58
2023/03/28 10:27:46;;;;;;;10.30;2.95;;;;;;;6.09;57.76;102501.81;5052223;28;19919;-58
2023/03/28 10:30:20;;;;;;;10.30;3.20;;;;;;;6.21;57.63;102496.72;5055345;28;20048;-58
2023/03/28 10:33:15;;;;;;;11.00;2.85;;;;;;;6.26;57.74;102492.81;5055408;28;20486;-58
2023/03/28 10:35:44;;;;;;;11.07;3.33;;;;;;;6.56;55.36;102492.41;5055690;28;20049;-56
2023/03/28 10:38:16;;;;;;;12.98;3.70;;;;;;;6.76;55.89;102481.00;5055095;28;20447;-56
2023/03/28 10:40:49;;;;;;;12.40;3.10;;;;;;;7.04;53.03;102472.72;5055150;28;20025;-56
2023/03/28 10:43:15;;;;;;;11.23;3.17;;;;;;;7.22;54.80;102471.44;5055356;28;20029;-56
2023/03/28 10:45:42;;;;;;;12.48;3.53;;;;;;;7.34;53.80;102473.06;5055231;28;20028;-56
2023/03/28 10:48:11;;;;;;;;;;;;;;;7.39;55.96;102471.72;5054851;28;20068;-56
2023/03/28 10:50:42;;;;;;;10.82;3.78;;;;;;;7.04;54.44;102463.34;5055256;28;19999;-55
2023/03/28 10:53:26;;;;;;;12.68;3.95;;;;;;;7.50;54.05;102460.50;5054920;28;20017;-55
2023/03/28 10:56:37;;;;;;;15.27;3.55;;;;;;;8.07;55.35;102461.72;5054761;28;20494;-55
2023/03/28 10:59:31;;;;;;;10.70;2.90;;;;;;;8.51;48.40;102457.72;5049291;28;20424;-56
2023/03/28 11:02:30;;;;;;;10.07;2.90;;;;;;;8.53;46.35;102460.38;5045663;28;20053;-56
2023/03/28 11:05:03;;;;;;;10.90;3.25;;;;;;;8.34;45.83;102454.06;5054845;28;20025;-56
2023/03/28 11:07:58;;;;;;;9.25;2.70;;;;;;;8.36;47.44;102449.88;5054744;28;20453;-55
2023/03/28 11:10:33;;;;;;;9.05;2.80;;;;;;;8.10;45.72;102448.19;5054511;28;20036;-56
2023/03/28 11:13:02;;;;;;;11.32;2.67;;;;;;;8.22;46.13;102432.69;5054687;28;20067;-56
2023/03/28 11:15:47;;;;;;;10.32;2.50;;;;;;;8.55;45.79;102428.00;5054353;28;20047;-55
2023/03/28 11:18:30;;;;;;;7.43;2.72;;;;;;;9.38;45.17;102414.19;5054784;28;20021;-56
2023/03/28 11:21:24;;;;;;;8.98;2.40;;;;;;;9.95;43.42;102408.88;5054293;28;20044;-56
2023/03/28 11:24:11;;;;;;;7.65;2.63;;;;;;;9.99;44.39;102405.69;5054133;28;20024;-55
2023/03/28 11:27:00;;;;;;;;;;;;;;;10.10;43.82;102404.59;5055409;28;20025;-55
2023/03/28 11:29:44;;;;;;;12.32;3.40;;;;;;;9.72;45.76;102406.75;5054483;28;19913;-56